createdAt,value
2022-09-28T00:01:29.802Z,98502.38
2022-09-28T00:03:59.865Z,98500.69
2022-09-28T00:06:30.246Z,98506.81
2022-09-28T00:08:59.305Z,98502.91
2022-09-28T00:11:29.939Z,98504.09
2022-09-28T00:14:02.563Z,98503.00
2022-09-28T00:16:33.174Z,98509.69
2022-09-28T00:19:02.877Z,98503.47
2022-09-28T00:21:33.378Z,98511.19
2022-09-28T00:24:16.200Z,98505.88
2022-09-28T00:26:48.421Z,98508.88
2022-09-28T00:29:20.957Z,98503.13
2022-09-28T00:31:54.145Z,98503.31
2022-09-28T00:34:34.803Z,98507.94
2022-09-28T00:37:06.458Z,98507.09
2022-09-28T00:39:38.428Z,98510.97
2022-09-28T00:42:17.764Z,98505.31
2022-09-28T00:44:51.986Z,98508.53
2022-09-28T00:47:44.320Z,98505.34
2022-09-28T00:50:19.360Z,98506.09
2022-09-28T00:52:53.309Z,98511.34
2022-09-28T00:55:31.564Z,98508.25
2022-09-28T00:58:04.926Z,98509.06
2022-09-28T01:00:34.080Z,98509.25
2022-09-28T01:03:05.169Z,98504.41
2022-09-28T01:05:36.031Z,98504.03
2022-09-28T01:08:07.500Z,98508.06
2022-09-28T01:10:36.225Z,98502.31
2022-09-28T01:13:06.325Z,98501.53
2022-09-28T01:15:41.591Z,98498.25
2022-09-28T01:18:17.929Z,98490.84
2022-09-28T01:20:54.196Z,98486.41
2022-09-28T01:23:49.209Z,98485.38
2022-09-28T01:26:43.195Z,98482.59
2022-09-28T01:29:18.789Z,98488.72
2022-09-28T01:31:53.092Z,98486.72
2022-09-28T01:34:25.990Z,98467.00
2022-09-28T01:36:56.906Z,98481.44
2022-09-28T01:39:29.711Z,98474.31
2022-09-28T01:42:03.285Z,98469.13
2022-09-28T01:44:33.157Z,98470.13
2022-09-28T01:47:04.510Z,98473.41
2022-09-28T01:49:36.417Z,98469.75
2022-09-28T01:52:11.114Z,98468.31
2022-09-28T01:54:44.043Z,98471.97
2022-09-28T01:57:17.180Z,98481.19
2022-09-28T01:59:51.612Z,98478.91
2022-09-28T02:02:23.333Z,98483.63
2022-09-28T02:04:55.496Z,98489.53
2022-09-28T02:07:27.769Z,98487.47
2022-09-28T02:09:58.638Z,98480.97
2022-09-28T02:12:32.574Z,98486.63
2022-09-28T02:15:08.600Z,98491.50
2022-09-28T02:17:37.252Z,98488.22
2022-09-28T02:20:07.558Z,98483.13
2022-09-28T02:22:40.750Z,98480.72
2022-09-28T02:25:11.653Z,98477.94
2022-09-28T02:27:45.115Z,98484.63
2022-09-28T02:30:14.774Z,98477.53
2022-09-28T02:32:46.683Z,98483.25
2022-09-28T02:35:18.494Z,98475.13
2022-09-28T02:37:48.222Z,98480.44
2022-09-28T02:40:18.035Z,98476.56
2022-09-28T02:42:55.184Z,98476.03
2022-09-28T02:45:32.461Z,98472.91
2022-09-28T02:48:09.897Z,98477.56
2022-09-28T02:50:44.941Z,98485.13
2022-09-28T02:53:40.302Z,98483.13
2022-09-28T02:56:22.096Z,98489.69
2022-09-28T02:59:00.448Z,98475.44
2022-09-28T03:01:32.741Z,98479.97
2022-09-28T03:04:09.088Z,98473.53
2022-09-28T03:06:42.157Z,98478.97
2022-09-28T03:09:14.327Z,98476.19
2022-09-28T03:11:46.957Z,98481.47
2022-09-28T03:14:18.131Z,98472.50
2022-09-28T03:16:52.626Z,98480.53
2022-09-28T03:19:25.478Z,98480.06
2022-09-28T03:21:54.825Z,98474.19
2022-09-28T03:24:23.508Z,98483.97
2022-09-28T03:26:53.457Z,98482.13
2022-09-28T03:29:23.730Z,98479.97
2022-09-28T03:31:58.974Z,98487.78
2022-09-28T03:34:27.717Z,98482.88
2022-09-28T03:36:56.881Z,98474.38
2022-09-28T03:39:25.843Z,98482.53
2022-09-28T03:41:54.561Z,98480.28
2022-09-28T03:44:25.328Z,98483.78
2022-09-28T03:46:53.603Z,98482.66
2022-09-28T03:49:22.363Z,98482.81
2022-09-28T03:51:51.694Z,98480.50
2022-09-28T03:54:20.459Z,98484.72
2022-09-28T03:56:49.118Z,98485.94
2022-09-28T03:59:18.950Z,98480.41
2022-09-28T04:01:50.164Z,98491.75
2022-09-28T04:04:19.365Z,98495.59
2022-09-28T04:06:48.009Z,98498.38
2022-09-28T04:09:17.556Z,98486.63
2022-09-28T04:12:03.374Z,98488.84
2022-09-28T04:14:33.007Z,98492.50
2022-09-28T04:17:03.056Z,98496.41
2022-09-28T04:19:33.411Z,98498.44
2022-09-28T04:22:25.074Z,98504.03
2022-09-28T04:24:54.039Z,98491.94
2022-09-28T04:27:39.965Z,98492.66
2022-09-28T04:30:10.396Z,98488.81
2022-09-28T04:32:42.087Z,98497.78
2022-09-28T04:35:12.065Z,98493.66
2022-09-28T04:37:40.453Z,98499.25
2022-09-28T04:40:10.309Z,98497.06
2022-09-28T04:42:39.748Z,98487.59
2022-09-28T04:45:09.817Z,98489.84
2022-09-28T04:47:43.188Z,98494.25
2022-09-28T04:50:21.164Z,98497.69
2022-09-28T04:53:12.721Z,98490.75
2022-09-28T04:55:41.380Z,98497.25
2022-09-28T04:58:10.023Z,98498.44
2022-09-28T05:00:40.531Z,98493.50
2022-09-28T05:03:21.095Z,98499.16
2022-09-28T05:06:08.685Z,98503.09
2022-09-28T05:08:44.927Z,98501.72
2022-09-28T05:11:14.808Z,98505.66
2022-09-28T05:13:45.470Z,98493.66
2022-09-28T05:16:17.116Z,98506.41
2022-09-28T05:19:06.623Z,98503.38
2022-09-28T05:21:35.356Z,98507.66
2022-09-28T05:24:07.653Z,98507.22
2022-09-28T05:26:38.666Z,98508.50
2022-09-28T05:29:08.788Z,98501.41
2022-09-28T05:31:55.857Z,98508.69
2022-09-28T05:34:47.986Z,98505.41
2022-09-28T05:37:22.921Z,98503.34
2022-09-28T05:39:51.723Z,98501.50
2022-09-28T05:42:21.484Z,98499.75
2022-09-28T05:44:50.149Z,98500.47
2022-09-28T05:47:20.329Z,98496.66
2022-09-28T05:49:50.147Z,98505.09
2022-09-28T05:52:19.003Z,98516.22
2022-09-28T05:54:47.935Z,98524.69
2022-09-28T05:57:17.158Z,98527.50
2022-09-28T05:59:46.075Z,98527.00
2022-09-28T06:02:15.448Z,98533.56
2022-09-28T06:04:45.234Z,98530.56
2022-09-28T06:07:15.399Z,98535.75
2022-09-28T06:09:45.172Z,98538.22
2022-09-28T06:12:20.008Z,98535.13
2022-09-28T06:14:57.314Z,98530.56
2022-09-28T06:17:26.109Z,98531.47
2022-09-28T06:20:17.712Z,98541.13
2022-09-28T06:22:59.521Z,98539.84
2022-09-28T06:25:28.639Z,98544.50
2022-09-28T06:27:58.325Z,98547.91
2022-09-28T06:30:28.799Z,98541.34
2022-09-28T06:32:59.200Z,98546.91
2022-09-28T06:35:30.546Z,98544.50
2022-09-28T06:38:01.207Z,98537.56
2022-09-28T06:40:29.492Z,98533.19
2022-09-28T06:42:59.405Z,98534.22
2022-09-28T06:45:52.444Z,98540.06
2022-09-28T06:48:47.211Z,98539.78
2022-09-28T06:51:36.882Z,98539.41
2022-09-28T06:54:25.691Z,98539.00
2022-09-28T06:57:09.372Z,98543.59
2022-09-28T06:59:38.682Z,98545.22
2022-09-28T07:02:07.989Z,98554.41
2022-09-28T07:04:55.236Z,98560.75
2022-09-28T07:07:44.954Z,98550.94
2022-09-28T07:10:29.537Z,98550.59
2022-09-28T07:13:46.421Z,98549.13
2022-09-28T07:16:10.639Z,98550.94
2022-09-28T07:18:39.357Z,98545.06
2022-09-28T07:21:12.892Z,98545.56
2022-09-28T07:23:52.782Z,98544.84
2022-09-28T07:26:26.930Z,98543.66
2022-09-28T07:29:06.882Z,98547.25
2022-09-28T07:31:55.075Z,98551.19
2022-09-28T07:34:44.862Z,98547.53
2022-09-28T07:37:18.974Z,98557.72
2022-09-28T07:40:14.106Z,98549.44
2022-09-28T07:42:44.854Z,98545.75
2022-09-28T07:45:15.124Z,98536.50
2022-09-28T07:47:44.032Z,98531.56
2022-09-28T07:50:38.880Z,98536.59
2022-09-28T07:53:23.339Z,98544.78
2022-09-28T07:56:10.619Z,98540.78
2022-09-28T07:58:49.357Z,98546.41
2022-09-28T08:01:44.478Z,98556.47
2022-09-28T08:04:20.659Z,98558.53
2022-09-28T08:06:49.440Z,98564.25
2022-09-28T08:09:18.571Z,98565.34
2022-09-28T08:12:06.350Z,98571.19
2022-09-28T08:14:45.656Z,98565.88
2022-09-28T08:17:33.331Z,98576.28
2022-09-28T08:20:24.788Z,98569.88
2022-09-28T08:22:53.681Z,98566.06
2022-09-28T08:25:22.616Z,98573.25
2022-09-28T08:27:52.108Z,98575.41
2022-09-28T08:30:25.174Z,98562.38
2022-09-28T08:33:04.353Z,98568.50
2022-09-28T08:35:46.119Z,98560.56
2022-09-28T08:38:32.811Z,98565.38
2022-09-28T08:41:16.336Z,98567.38
2022-09-28T08:44:19.530Z,98563.19
2022-09-28T08:47:36.518Z,98563.03
2022-09-28T08:50:33.401Z,98567.50
2022-09-28T08:53:27.377Z,98578.03
2022-09-28T08:56:29.626Z,98566.19
2022-09-28T08:59:01.630Z,98566.94
2022-09-28T09:01:36.080Z,98567.38
2022-09-28T09:04:09.332Z,98564.91
2022-09-28T09:07:11.965Z,98558.47
2022-09-28T09:09:58.107Z,98554.91
2022-09-28T09:12:33.849Z,98564.13
2022-09-28T09:15:18.500Z,98558.47
2022-09-28T09:17:53.843Z,98552.97
2022-09-28T09:20:58.487Z,98543.19
2022-09-28T09:23:38.554Z,98533.38
2022-09-28T09:26:17.129Z,98544.47
2022-09-28T09:29:13.779Z,98548.22
2022-09-28T09:32:09.182Z,98542.78
2022-09-28T09:34:50.837Z,98535.81
2022-09-28T09:38:17.503Z,98540.81
2022-09-28T09:41:23.261Z,98553.84
2022-09-28T09:44:54.914Z,98554.78
2022-09-28T09:47:45.090Z,98563.53
2022-09-28T09:50:30.180Z,98561.94
2022-09-28T09:53:03.882Z,98568.88
2022-09-28T09:55:40.372Z,98570.47
2022-09-28T09:58:39.576Z,98571.94
2022-09-28T10:01:20.810Z,98581.19
2022-09-28T10:04:30.710Z,98583.88
2022-09-28T10:07:07.284Z,98574.56
2022-09-28T10:09:41.083Z,98573.25
2022-09-28T10:12:35.258Z,98574.97
2022-09-28T10:15:03.948Z,98583.50
2022-09-28T10:17:36.530Z,98584.84
2022-09-28T10:20:25.758Z,98590.75
2022-09-28T10:23:04.053Z,98590.69
2022-09-28T10:25:35.620Z,98580.69
2022-09-28T10:28:06.699Z,98585.69
2022-09-28T10:30:44.647Z,98579.97
2022-09-28T10:33:29.486Z,98574.56
2022-09-28T10:35:58.741Z,98570.81
2022-09-28T10:38:27.773Z,98576.91
2022-09-28T10:41:00.883Z,98581.22
2022-09-28T10:44:11.197Z,98584.22
2022-09-28T10:47:02.686Z,98589.38
2022-09-28T10:49:46.577Z,98586.59
2022-09-28T10:52:35.291Z,98589.59
2022-09-28T10:55:05.705Z,98591.41
2022-09-28T10:57:35.016Z,98599.88
2022-09-28T11:00:31.757Z,98602.91
2022-09-28T11:03:30.858Z,98578.22
2022-09-28T11:06:06.154Z,98565.81
2022-09-28T11:08:39.900Z,98571.41
2022-09-28T11:11:11.993Z,98567.00
2022-09-28T11:13:45.993Z,98553.03
2022-09-28T11:16:28.708Z,98566.19
2022-09-28T11:19:00.500Z,98565.97
2022-09-28T11:21:32.259Z,98571.94
2022-09-28T11:24:20.144Z,98578.22
2022-09-28T11:26:52.997Z,98570.19
2022-09-28T11:29:36.535Z,98570.88
2022-09-28T11:32:41.424Z,98575.38
2022-09-28T11:35:24.156Z,98577.97
2022-09-28T11:38:11.194Z,98566.84
2022-09-28T11:41:05.141Z,98575.81
2022-09-28T11:43:47.187Z,98579.13
2022-09-28T11:46:21.321Z,98580.06
2022-09-28T11:48:56.200Z,98580.19
2022-09-28T11:51:27.672Z,98570.78
2022-09-28T11:53:58.527Z,98576.03
2022-09-28T11:56:34.132Z,98584.19
2022-09-28T11:59:07.226Z,98573.84
2022-09-28T12:01:46.649Z,98592.28
2022-09-28T12:04:37.099Z,98573.38
2022-09-28T12:07:11.469Z,98583.06
2022-09-28T12:09:43.743Z,98589.06
2022-09-28T12:12:26.196Z,98586.22
2022-09-28T12:15:01.149Z,98584.44
2022-09-28T12:17:34.904Z,98580.56
2022-09-28T12:20:11.232Z,98583.91
2022-09-28T12:22:42.268Z,98584.56
2022-09-28T12:25:14.466Z,98590.47
2022-09-28T12:27:47.756Z,98583.63
2022-09-28T12:30:19.468Z,98581.69
2022-09-28T12:32:50.904Z,98584.28
2022-09-28T12:35:28.971Z,98587.03
2022-09-28T12:38:16.650Z,98590.47
2022-09-28T12:40:53.617Z,98585.25
2022-09-28T12:43:46.796Z,98585.56
2022-09-28T12:46:27.320Z,98578.03
2022-09-28T12:50:20.088Z,98583.88
2022-09-28T12:52:01.603Z,98588.47
2022-09-28T12:55:08.521Z,98588.94
2022-09-28T12:57:46.513Z,98592.63
2022-09-28T13:00:17.609Z,98580.09
2022-09-28T13:03:22.137Z,98579.25
2022-09-28T13:06:21.489Z,98574.09
2022-09-28T13:09:02.509Z,98575.00
2022-09-28T13:11:34.984Z,98570.94
2022-09-28T13:14:24.224Z,98563.19
2022-09-28T13:17:00.531Z,98565.63
2022-09-28T13:19:35.259Z,98557.16
2022-09-28T13:22:11.869Z,98553.25
2022-09-28T13:24:44.375Z,98552.56
2022-09-28T13:27:17.398Z,98548.69
2022-09-28T13:29:46.473Z,98556.00
2022-09-28T13:32:15.615Z,98551.25
2022-09-28T13:34:49.026Z,98552.53
2022-09-28T13:37:24.274Z,98551.88
2022-09-28T13:39:56.603Z,98547.09
2022-09-28T13:42:56.443Z,98540.75
2022-09-28T13:45:33.585Z,98541.91
2022-09-28T13:48:15.527Z,98546.66
2022-09-28T13:51:10.588Z,98564.13
2022-09-28T13:53:54.324Z,98563.84
2022-09-28T13:56:31.975Z,98559.75
2022-09-28T13:59:03.339Z,98563.09
2022-09-28T14:01:36.790Z,98570.06
2022-09-28T14:04:16.436Z,98557.41
2022-09-28T14:06:49.491Z,98555.22
2022-09-28T14:09:40.422Z,98565.31
2022-09-28T14:12:32.895Z,98555.34
2022-09-28T14:15:02.117Z,98560.84
2022-09-28T14:17:52.682Z,98568.97
2022-09-28T14:20:25.048Z,98556.38
2022-09-28T14:23:25.504Z,98567.09
2022-09-28T14:26:31.532Z,98562.88
2022-09-28T14:29:10.207Z,98561.28
2022-09-28T14:31:43.351Z,98557.97
2022-09-28T14:34:26.998Z,98563.28
2022-09-28T14:37:13.362Z,98572.25
2022-09-28T14:40:03.338Z,98565.53
2022-09-28T14:42:32.535Z,98569.19
2022-09-28T14:45:35.855Z,98556.69
2022-09-28T14:48:11.975Z,98566.63
2022-09-28T14:50:40.870Z,98567.38
2022-09-28T14:53:13.636Z,98567.03
2022-09-28T14:55:51.967Z,98570.13
2022-09-28T14:58:23.722Z,98572.78
2022-09-28T15:00:59.787Z,98575.03
2022-09-28T15:03:31.050Z,98579.13
2022-09-28T15:05:59.902Z,98574.44
2022-09-28T15:08:38.387Z,98568.94
2022-09-28T15:11:07.747Z,98580.59
2022-09-28T15:13:36.693Z,98584.28
2022-09-28T15:16:11.507Z,98578.34
2022-09-28T15:19:20.625Z,98586.13
2022-09-28T15:21:51.187Z,98592.69
2022-09-28T15:24:27.235Z,98581.66
2022-09-28T15:26:56.835Z,98578.38
2022-09-28T15:29:27.392Z,98570.81
2022-09-28T15:31:57.286Z,98570.41
2022-09-28T15:34:48.197Z,98563.06
2022-09-28T15:37:19.127Z,98570.00
2022-09-28T15:39:48.315Z,98572.47
2022-09-28T15:42:18.611Z,98574.50
2022-09-28T15:45:07.922Z,98576.31
2022-09-28T15:47:40.209Z,98566.94
2022-09-28T15:50:21.911Z,98563.03
2022-09-28T15:52:55.070Z,98553.59
2022-09-28T15:55:26.083Z,98563.69
2022-09-28T15:58:08.005Z,98561.56
2022-09-28T16:00:37.039Z,98567.50
2022-09-28T16:03:22.582Z,98576.28
2022-09-28T16:05:52.905Z,98571.19
2022-09-28T16:08:25.084Z,98579.56
2022-09-28T16:11:09.263Z,98570.75
2022-09-28T16:13:38.808Z,98560.97
2022-09-28T16:16:07.588Z,98569.75
2022-09-28T16:18:40.521Z,98565.00
2022-09-28T16:21:28.103Z,98550.31
2022-09-28T16:23:57.643Z,98549.69
2022-09-28T16:26:34.114Z,98551.34
2022-09-28T16:29:09.497Z,98553.38
2022-09-28T16:31:41.529Z,98552.75
2022-09-28T16:34:20.907Z,98558.25
2022-09-28T16:36:51.073Z,98557.00
2022-09-28T16:39:20.718Z,98559.25
2022-09-28T16:41:52.063Z,98551.06
2022-09-28T16:44:24.738Z,98553.31
2022-09-28T16:46:55.236Z,98552.91
2022-09-28T16:49:26.975Z,98551.88
2022-09-28T16:51:55.863Z,98549.44
2022-09-28T16:54:43.132Z,98556.38
2022-09-28T16:57:13.739Z,98565.75
2022-09-28T16:59:42.764Z,98568.16
2022-09-28T17:05:10.312Z,98551.84
2022-09-28T17:07:39.026Z,98546.31
2022-09-28T17:10:15.599Z,98552.88
2022-09-28T17:12:44.301Z,98552.25
2022-09-28T17:15:16.518Z,98539.59
2022-09-28T17:17:45.536Z,98543.91
2022-09-28T17:20:22.604Z,98540.25
2022-09-28T17:22:52.122Z,98538.41
2022-09-28T17:25:21.050Z,98552.47
2022-09-28T17:27:50.256Z,98545.72
2022-09-28T17:30:23.633Z,98551.03
2022-09-28T17:32:54.557Z,98556.94
2022-09-28T17:35:25.609Z,98555.63
2022-09-28T17:37:54.497Z,98565.84
2022-09-28T17:40:28.503Z,98579.88
2022-09-28T17:42:57.711Z,98579.06
2022-09-28T17:45:31.396Z,98582.72
2022-09-28T17:48:00.797Z,98580.97
2022-09-28T17:50:34.298Z,98581.22
2022-09-28T17:53:06.205Z,98575.63
2022-09-28T17:55:36.803Z,98584.19
2022-09-28T17:58:15.698Z,98585.38
2022-09-28T18:00:44.887Z,98592.69
2022-09-28T18:03:16.788Z,98597.94
2022-09-28T18:05:48.371Z,98603.56
2022-09-28T18:08:20.222Z,98608.72
2022-09-28T18:10:49.148Z,98618.06
2022-09-28T18:13:18.302Z,98622.31
2022-09-28T18:15:47.529Z,98626.16
2022-09-28T18:18:16.392Z,98634.22
2022-09-28T18:20:46.643Z,98633.34
2022-09-28T18:23:15.801Z,98645.94
2022-09-28T18:25:45.517Z,98655.47
2022-09-28T18:28:14.872Z,98655.56
2022-09-28T18:30:45.022Z,98658.53
2022-09-28T18:33:14.922Z,98667.75
2022-09-28T18:35:53.462Z,98682.56
2022-09-28T18:38:22.621Z,98682.66
2022-09-28T18:40:51.212Z,98681.56
2022-09-28T18:43:20.069Z,98677.09
2022-09-28T18:45:49.381Z,98695.16
2022-09-28T18:48:18.390Z,98690.75
2022-09-28T18:50:47.612Z,98688.72
2022-09-28T18:53:20.066Z,98697.66
2022-09-28T18:55:48.936Z,98697.06
2022-09-28T18:58:17.916Z,98697.91
2022-09-28T19:00:46.661Z,98694.88
2022-09-28T19:03:15.620Z,98692.38
2022-09-28T19:05:44.748Z,98704.91
2022-09-28T19:08:13.743Z,98700.53
2022-09-28T19:10:44.752Z,98691.41
2022-09-28T19:13:13.729Z,98689.78
2022-09-28T19:15:42.717Z,98679.22
2022-09-28T19:18:12.714Z,98681.22
2022-09-28T19:20:41.582Z,98670.78
2022-09-28T19:23:10.406Z,98667.81
2022-09-28T19:25:40.382Z,98652.66
2022-09-28T19:28:10.589Z,98635.81
2022-09-28T19:30:39.529Z,98623.59
2022-09-28T19:33:08.433Z,98631.66
2022-09-28T19:35:37.194Z,98637.09
2022-09-28T19:38:06.000Z,98639.88
2022-09-28T19:40:38.152Z,98641.16
2022-09-28T19:43:07.040Z,98637.13
2022-09-28T19:45:38.243Z,98633.22
2022-09-28T19:48:07.176Z,98642.22
2022-09-28T19:50:36.039Z,98621.75
2022-09-28T19:53:07.471Z,98623.03
2022-09-28T19:55:36.353Z,98630.59
2022-09-28T19:58:05.383Z,98630.22
2022-09-28T20:00:34.273Z,98637.50
2022-09-28T20:03:04.881Z,98633.88
2022-09-28T20:05:33.831Z,98634.44
2022-09-28T20:10:37.162Z,98647.00
2022-09-28T20:13:06.067Z,98646.72
2022-09-28T20:15:37.428Z,98643.78
2022-09-28T20:18:08.457Z,98645.97
2022-09-28T20:20:37.331Z,98649.66
2022-09-28T20:23:06.129Z,98647.41
2022-09-28T20:25:34.702Z,98652.31
2022-09-28T20:28:03.694Z,98645.38
2022-09-28T20:30:33.318Z,98639.81
2022-09-28T20:33:02.140Z,98634.22
2022-09-28T20:35:33.373Z,98632.78
2022-09-28T20:38:08.147Z,98628.22
2022-09-28T20:40:36.836Z,98630.53
2022-09-28T20:43:06.817Z,98633.06
2022-09-28T20:45:36.653Z,98626.66
2022-09-28T20:48:06.543Z,98640.03
2022-09-28T20:50:36.870Z,98636.22
2022-09-28T20:53:05.752Z,98635.72
2022-09-28T20:55:34.332Z,98633.34
2022-09-28T20:58:04.529Z,98642.75
2022-09-28T21:00:33.308Z,98644.19
2022-09-28T21:03:02.208Z,98642.03
2022-09-28T21:05:31.090Z,98643.50
2022-09-28T21:08:01.378Z,98640.50
2022-09-28T21:10:30.964Z,98627.81
2022-09-28T21:12:59.752Z,98635.34
2022-09-28T21:15:29.221Z,98641.91
2022-09-28T21:17:58.062Z,98639.91
2022-09-28T21:20:26.904Z,98638.56
2022-09-28T21:22:55.394Z,98643.56
2022-09-28T21:25:25.690Z,98638.63
2022-09-28T21:27:54.528Z,98639.56
2022-09-28T21:30:23.312Z,98641.09
2022-09-28T21:32:53.211Z,98639.16
2022-09-28T21:35:22.037Z,98637.56
2022-09-28T21:37:50.660Z,98642.91
2022-09-28T21:40:20.486Z,98638.13
2022-09-28T21:42:51.019Z,98644.94
2022-09-28T21:45:19.710Z,98644.28
2022-09-28T21:47:53.016Z,98649.59
2022-09-28T21:50:23.163Z,98657.84
2022-09-28T21:52:52.919Z,98663.31
2022-09-28T21:55:23.219Z,98666.94
2022-09-28T21:57:53.440Z,98663.16
2022-09-28T22:00:24.357Z,98669.47
2022-09-28T22:02:53.383Z,98673.91
2022-09-28T22:05:22.161Z,98675.09
2022-09-28T22:07:50.647Z,98678.06
2022-09-28T22:10:19.632Z,98671.28
2022-09-28T22:12:48.505Z,98685.78
2022-09-28T22:15:18.992Z,98687.94
2022-09-28T22:17:47.466Z,98687.94
2022-09-28T22:20:16.340Z,98692.91
2022-09-28T22:22:44.826Z,98700.16
2022-09-28T22:25:13.902Z,98696.53
2022-09-28T22:27:42.784Z,98691.59
2022-09-28T22:30:12.355Z,98688.66
2022-09-28T22:32:42.625Z,98691.47
2022-09-28T22:35:11.738Z,98688.19
2022-09-28T22:37:40.292Z,98693.59
2022-09-28T22:40:11.816Z,98690.28
2022-09-28T22:42:40.983Z,98682.25
2022-09-28T22:45:10.282Z,98687.66
2022-09-28T22:47:39.282Z,98681.06
2022-09-28T22:50:10.268Z,98692.91
2022-09-28T22:52:38.745Z,98694.22
2022-09-28T22:55:08.317Z,98697.53
2022-09-28T22:57:37.243Z,98700.97
2022-09-28T23:00:07.120Z,98692.78
2022-09-28T23:02:36.018Z,98693.25
2022-09-28T23:05:05.631Z,98690.28
2022-09-28T23:07:35.503Z,98689.28
2022-09-28T23:10:04.512Z,98687.00
2022-09-28T23:12:35.760Z,98692.25
2022-09-28T23:15:06.559Z,98694.91
2022-09-28T23:17:35.488Z,98692.59
2022-09-28T23:20:04.608Z,98701.81
2022-09-28T23:22:33.276Z,98705.50
2022-09-28T23:25:03.728Z,98713.72
2022-09-28T23:27:32.340Z,98700.22
2022-09-28T23:30:01.304Z,98705.81
2022-09-28T23:32:32.107Z,98705.50
2022-09-28T23:35:01.238Z,98706.97
2022-09-28T23:37:29.775Z,98717.34
2022-09-28T23:39:58.618Z,98716.88
2022-09-28T23:42:29.105Z,98724.91
2022-09-28T23:44:57.780Z,98723.78
2022-09-28T23:47:26.677Z,98734.47
2022-09-28T23:49:55.193Z,98738.56
2022-09-28T23:52:24.149Z,98736.78
2022-09-28T23:54:52.987Z,98739.06
2022-09-28T23:57:21.966Z,98739.38
2022-09-28T23:59:52.334Z,98739.56
